Time;durP1;ratioP1;P1;durP2;ratioP2;P2;SDS_P1;SDS_P2;PMS_P1;PMS_P2;Temp;Humidity;BMP_temperature;BMP_pressure;BME280_temperature;BME280_humidity;BME280_pressure;Samples;Min_cycle;Max_cycle;Signal;HPM_P1;HPM_P2
2023/03/10 00:01:18;;;;;;;;;7.75;5.75;;;;;12.34;64.31;98662.53;5002759;28;45478;-62
2023/03/10 00:03:44;;;;;;;;;11.00;3.25;;;;;12.27;64.29;98655.88;5009097;28;45234;-62
2023/03/10 00:06:12;;;;;;;;;11.75;4.00;;;;;12.29;64.35;98649.59;5017363;28;45281;-62
2023/03/10 00:08:37;;;;;;;;;6.75;3.00;;;;;12.31;63.50;98649.50;5017267;28;45775;-62
2023/03/10 00:11:03;;;;;;;;;7.25;5.75;;;;;12.33;64.51;98659.03;5016872;28;45400;-62
2023/03/10 00:13:28;;;;;;;;;7.00;2.50;;;;;12.33;64.21;98639.75;5017702;28;45390;-61
2023/03/10 00:15:53;;;;;;;;;3.75;1.00;;;;;12.29;64.00;98643.47;5014934;28;45608;-61
2023/03/10 00:18:19;;;;;;;;;5.75;3.00;;;;;12.31;64.06;98649.50;4997618;28;45386;-61
2023/03/10 00:20:44;;;;;;;;;7.00;4.50;;;;;12.33;64.31;98637.94;5014773;28;45393;-61
2023/03/10 00:23:09;;;;;;;;;8.25;5.00;;;;;12.34;64.28;98657.25;5017598;28;45357;-62
2023/03/10 00:25:35;;;;;;;;;10.50;5.50;;;;;12.37;64.20;98640.44;5016699;28;45541;-61
2023/03/10 00:28:00;;;;;;;;;6.00;3.00;;;;;12.32;63.73;98638.88;5017244;28;53265;-61
2023/03/10 00:30:25;;;;;;;;;10.25;5.00;;;;;12.34;63.42;98625.66;5017108;28;45231;-62
2023/03/10 00:32:50;;;;;;;;;8.25;4.00;;;;;12.31;63.85;98610.88;5015885;28;46544;-61
2023/03/10 00:35:16;;;;;;;;;4.50;2.00;;;;;12.33;63.81;98652.91;5015500;28;45405;-61
2023/03/10 00:37:42;;;;;;;;;12.00;4.50;;;;;12.41;63.91;98631.41;5016969;28;46172;-62
2023/03/10 00:40:11;;;;;;;;;7.00;4.00;;;;;12.39;63.60;98601.66;5016694;28;45412;-62
2023/03/10 00:42:36;;;;;;;;;8.00;4.50;;;;;12.40;64.03;98608.66;5017309;28;45488;-61
2023/03/10 00:45:01;;;;;;;;;8.00;3.25;;;;;12.40;64.07;98616.53;5016591;28;49472;-61
2023/03/10 00:47:27;;;;;;;;;9.00;6.00;;;;;12.40;63.01;98609.50;5016723;28;47335;-61
2023/03/10 00:49:52;;;;;;;;;8.75;5.25;;;;;12.43;64.09;98619.03;5016920;28;45243;-61
2023/03/10 00:52:17;;;;;;;;;12.50;7.50;;;;;12.38;63.87;98598.19;5017039;28;45253;-62
2023/03/10 00:54:43;;;;;;;;;7.25;4.00;;;;;12.35;63.55;98637.88;5016643;28;45398;-61
2023/03/10 00:57:08;;;;;;;;;9.25;3.75;;;;;12.40;63.78;98677.13;5015515;28;48286;-62
2023/03/10 00:59:33;;;;;;;;;8.75;3.00;;;;;12.38;63.77;98618.41;5014252;28;45295;-62
2023/03/10 01:01:59;;;;;;;;;4.25;2.00;;;;;12.35;63.94;98627.31;4997130;28;45385;-61
2023/03/10 01:04:24;;;;;;;;;4.25;1.75;;;;;12.32;64.02;98596.75;5012779;28;45418;-61
2023/03/10 01:06:49;;;;;;;;;7.00;3.00;;;;;12.23;63.94;98599.91;5015341;28;47439;-61
2023/03/10 01:09:16;;;;;;;;;4.25;3.00;;;;;12.20;64.32;98600.09;5015980;28;45251;-61
2023/03/10 01:11:42;;;;;;;;;6.50;2.00;;;;;12.12;64.17;98610.16;5016840;28;45297;-61
2023/03/10 01:14:10;;;;;;;;;3.00;1.00;;;;;12.06;63.96;98610.50;5016536;28;45342;-62
2023/03/10 01:16:35;;;;;;;;;2.00;0.75;;;;;12.01;64.19;98619.50;5008267;28;46355;-61
2023/03/10 01:19:00;;;;;;;;;0.75;0.75;;;;;11.94;64.22;98602.31;4998286;28;45356;-62
2023/03/10 01:21:32;;;;;;;;;0.75;0.75;;;;;11.87;64.18;98588.63;5016800;28;45358;-62
2023/03/10 01:23:59;;;;;;;;;2.00;1.00;;;;;11.84;64.22;98572.16;5014782;28;45343;-61
2023/03/10 01:26:24;;;;;;;;;3.00;1.50;;;;;11.75;64.00;98549.81;5016392;28;45347;-61
2023/03/10 01:28:50;;;;;;;;;4.00;1.25;;;;;11.71;64.18;98564.91;5016103;28;45206;-62
2023/03/10 01:31:16;;;;;;;;;1.75;1.75;;;;;11.65;64.02;98574.94;5016466;28;45459;-61
2023/03/10 01:33:42;;;;;;;;;4.00;3.00;;;;;11.61;63.98;98582.13;5016240;28;45486;-62
2023/03/10 01:36:09;;;;;;;;;5.25;2.50;;;;;11.59;63.80;98597.13;5016126;28;47214;-61
2023/03/10 01:38:36;;;;;;;;;3.00;1.25;;;;;11.54;63.94;98600.00;5015774;28;45441;-61
2023/03/10 01:41:01;;;;;;;;;1.00;1.00;;;;;11.48;63.91;98600.34;5014576;28;45384;-61
2023/03/10 01:43:32;;;;;;;;;5.25;2.25;;;;;11.49;64.14;98591.50;5015974;28;45314;-61
2023/03/10 01:46:00;;;;;;;;;1.25;0.50;;;;;11.47;63.73;98603.91;5016117;28;45452;-62
2023/03/10 01:48:29;;;;;;;;;5.25;2.00;;;;;11.42;63.87;98579.63;5018372;28;45259;-61
2023/03/10 01:50:56;;;;;;;;;3.00;2.00;;;;;11.42;63.84;98568.22;5019159;28;45296;-61
2023/03/10 01:53:23;;;;;;;;;2.75;2.00;;;;;11.37;63.51;98569.31;5050465;28;45681;-61
2023/03/10 01:55:53;;;;;;;;;7.50;3.00;;;;;11.37;63.69;98565.81;5018678;28;46681;-61
2023/03/10 01:58:21;;;;;;;;;3.50;3.00;;;;;11.37;63.73;98550.06;5019171;28;45241;-61
2023/03/10 02:00:47;;;;;;;;;5.50;2.75;;;;;11.34;63.66;98540.53;5006634;28;45338;-61
2023/03/10 02:03:23;;;;;;;;;3.50;2.50;;;;;11.30;63.56;98541.63;5006508;28;45563;-61
2023/03/10 02:06:04;;;;;;;;;3.25;1.00;;;;;11.32;63.83;98558.19;5018845;28;46129;-61
2023/03/10 02:08:34;;;;;;;;;6.00;3.00;;;;;11.34;63.76;98524.75;5019019;28;45257;-61
2023/03/10 02:11:00;;;;;;;;;8.00;4.00;;;;;11.35;63.67;98536.16;5018545;28;45359;-61
2023/03/10 02:13:26;;;;;;;;;10.00;4.75;;;;;11.35;63.69;98512.50;5018938;28;45381;-61
2023/03/10 02:15:51;;;;;;;;;7.50;3.50;;;;;11.35;63.69;98523.00;5016451;28;45552;-61
2023/03/10 02:18:19;;;;;;;;;5.75;3.25;;;;;11.36;63.41;98515.03;4999831;28;45234;-61
2023/03/10 02:21:06;;;;;;;;;4.75;1.50;;;;;11.36;63.20;98528.19;5016790;28;45317;-61
2023/03/10 02:23:45;;;;;;;;;5.75;4.00;;;;;11.33;63.39;98525.72;5018794;28;45293;-61
2023/03/10 02:26:23;;;;;;;;;4.50;2.75;;;;;11.40;63.59;98535.91;5018488;28;45265;-62
2023/03/10 02:28:50;;;;;;;;;6.50;3.00;;;;;11.34;63.21;98530.03;5017233;28;45258;-61
2023/03/10 02:31:17;;;;;;;;;11.00;6.00;;;;;11.36;63.47;98511.56;5018806;28;45319;-62
2023/03/10 02:33:45;;;;;;;;;8.50;3.75;;;;;11.37;63.15;98507.97;5018451;28;45325;-61
2023/03/10 02:36:17;;;;;;;;;4.50;2.50;;;;;11.37;63.19;98503.59;5018560;28;46365;-61
2023/03/10 02:38:42;;;;;;;;;6.50;3.00;;;;;11.35;63.05;98505.44;5018198;28;45431;-61
2023/03/10 02:41:30;;;;;;;;;6.00;2.75;;;;;11.42;63.08;98507.75;5018313;28;45325;-61
2023/03/10 02:43:58;;;;;;;;;5.75;2.50;;;;;11.40;62.90;98496.47;5018764;28;45153;-61
2023/03/10 02:46:24;;;;;;;;;6.00;3.00;;;;;11.34;62.98;98497.63;5018306;28;45330;-61
2023/03/10 02:48:50;;;;;;;;;2.25;2.00;;;;;11.38;63.07;98505.28;5017919;28;45436;-61
2023/03/10 02:51:26;;;;;;;;;1.50;1.00;;;;;11.39;62.90;98485.09;5017064;28;45431;-61
2023/03/10 02:53:51;;;;;;;;;2.50;2.00;;;;;11.38;62.60;98486.00;5018509;28;45332;-61
2023/03/10 02:56:17;;;;;;;;;2.50;0.50;;;;;11.33;62.72;98485.41;5018249;28;45425;-61
2023/03/10 02:58:42;;;;;;;;;5.50;1.75;;;;;11.35;62.68;98494.09;5018397;28;45495;-61
2023/03/10 03:01:08;;;;;;;;;1.75;1.00;;;;;11.26;62.57;98489.28;5003043;28;45434;-61
2023/03/10 03:03:34;;;;;;;;;0.75;0.75;;;;;11.24;62.36;98485.91;5007890;28;45461;-61
2023/03/10 03:05:59;;;;;;;;;3.00;1.00;;;;;11.25;62.44;98491.09;5018228;28;45485;-61
2023/03/10 03:08:25;;;;;;;;;0.00;0.00;;;;;11.21;62.39;98493.03;5018425;28;45450;-61
2023/03/10 03:10:50;;;;;;;;;3.00;1.00;;;;;11.22;62.36;98483.38;5017985;28;45464;-62
2023/03/10 03:13:16;;;;;;;;;1.00;0.75;;;;;11.22;62.24;98478.94;5018354;28;45258;-62
2023/03/10 03:15:41;;;;;;;;;1.50;1.25;;;;;11.18;62.57;98481.81;5017360;28;45402;-61
2023/03/10 03:18:07;;;;;;;;;1.50;1.25;;;;;11.19;62.39;98473.00;4998538;28;45298;-61
2023/03/10 03:20:35;;;;;;;;;6.75;3.00;;;;;11.18;62.12;98473.94;5016840;28;45225;-62
2023/03/10 03:23:00;;;;;;;;;1.75;1.75;;;;;11.14;62.41;98467.97;5018087;28;45330;-61
2023/03/10 03:25:27;;;;;;;;;7.75;1.00;;;;;11.18;62.43;98479.19;5017471;28;45337;-61
2023/03/10 03:27:53;;;;;;;;;2.25;2.00;;;;;11.20;62.51;98466.81;5018191;28;45327;-62
2023/03/10 03:30:22;;;;;;;;;4.00;1.75;;;;;11.18;62.50;98466.03;5018048;28;45578;-61
2023/03/10 03:32:48;;;;;;;;;5.25;2.75;;;;;11.20;62.78;98491.31;5018004;28;45462;-61
2023/03/10 03:35:18;;;;;;;;;5.25;1.25;;;;;11.18;62.47;98471.28;5017796;28;45327;-61
2023/03/10 03:37:44;;;;;;;;;8.50;3.50;;;;;11.16;62.56;98478.44;5018017;28;45396;-62
2023/03/10 03:40:11;;;;;;;;;6.50;4.25;;;;;11.16;62.66;98470.53;5017550;28;45441;-62
2023/03/10 03:42:44;;;;;;;;;5.25;3.00;;;;;11.13;62.63;98468.06;5017948;28;45510;-62
2023/03/10 03:45:11;;;;;;;;;6.00;2.00;;;;;11.15;62.65;98474.09;5017547;28;45461;-62
2023/03/10 03:47:36;;;;;;;;;8.00;3.50;;;;;11.17;62.61;98477.47;5017645;28;45211;-61
2023/03/10 03:50:03;;;;;;;;;5.00;2.50;;;;;11.15;62.82;98474.09;5017517;28;45257;-62
2023/03/10 03:52:29;;;;;;;;;11.00;4.00;;;;;11.13;62.66;98468.94;5017720;28;45246;-62
2023/03/10 03:54:54;;;;;;;;;6.75;4.50;;;;;11.12;62.75;98469.84;5017060;28;45360;-62
2023/03/10 03:57:20;;;;;;;;;9.00;5.00;;;;;11.14;62.93;98477.66;5017731;28;45181;-64
2023/03/10 03:59:46;;;;;;;;;7.75;4.25;;;;;11.11;62.89;98470.78;5013423;28;45318;-62
2023/03/10 04:02:11;;;;;;;;;8.25;4.00;;;;;11.12;63.08;98469.00;5013012;28;45464;-62
2023/03/10 04:04:36;;;;;;;;;6.25;2.00;;;;;11.11;63.08;98475.19;5014403;28;47867;-61
2023/03/10 04:07:02;;;;;;;;;7.00;3.50;;;;;11.12;63.04;98474.25;5016437;28;46020;-62
2023/03/10 04:09:28;;;;;;;;;7.75;3.00;;;;;11.14;63.07;98478.50;5016459;28;45499;-62
2023/03/10 04:11:54;;;;;;;;;4.75;3.75;;;;;11.15;63.22;98474.09;5017580;28;45438;-62
2023/03/10 04:14:19;;;;;;;;;6.00;3.50;;;;;11.16;62.92;98468.75;5017114;28;45360;-62
2023/03/10 04:16:45;;;;;;;;;7.75;4.00;;;;;11.15;63.40;98472.31;5008100;28;45401;-62
2023/03/10 04:19:11;;;;;;;;;6.75;4.00;;;;;11.16;63.25;98468.75;5002290;28;45304;-63
2023/03/10 04:21:37;;;;;;;;;4.00;2.75;;;;;11.15;63.25;98468.84;5016150;28;45828;-63
2023/03/10 04:24:03;;;;;;;;;9.50;5.50;;;;;11.10;63.16;98471.72;5031982;28;46836;-62
2023/03/10 04:26:28;;;;;;;;;6.75;3.75;;;;;11.13;63.02;98457.56;5015961;28;45374;-62
2023/03/10 04:29:06;;;;;;;;;5.75;4.75;;;;;11.14;63.13;98464.50;5017136;28;45320;-62
2023/03/10 04:31:32;;;;;;;;;4.75;2.00;;;;;11.16;63.47;98465.28;5017253;28;45339;-62
2023/03/10 04:33:57;;;;;;;;;6.00;4.25;;;;;11.16;63.16;98466.13;5016902;28;46024;-62
2023/03/10 04:36:22;;;;;;;;;6.75;4.00;;;;;11.12;63.15;98466.34;5017338;28;45393;-62
2023/03/10 04:38:48;;;;;;;;;3.25;2.75;;;;;11.13;63.41;98474.19;5016860;28;45422;-62
2023/03/10 04:41:13;;;;;;;;;4.25;2.00;;;;;11.07;62.99;98487.66;5017029;28;45700;-62
2023/03/10 04:43:39;;;;;;;;;5.50;2.75;;;;;11.06;62.85;98478.06;5016866;28;45389;-62
2023/03/10 04:46:05;;;;;;;;;6.25;3.75;;;;;11.05;62.74;98487.72;5015534;28;45353;-62
2023/03/10 04:48:31;;;;;;;;;1.25;1.00;;;;;11.02;63.00;98473.91;5016800;28;45262;-63
2023/03/10 04:50:59;;;;;;;;;4.75;2.00;;;;;11.07;62.69;98511.31;5016895;28;45425;-62
2023/03/10 04:53:24;;;;;;;;;4.75;3.00;;;;;11.09;62.64;98492.81;5016600;28;46227;-62
2023/03/10 04:55:50;;;;;;;;;2.00;1.00;;;;;11.08;62.65;98470.97;5016587;28;45221;-63
2023/03/10 04:58:20;;;;;;;;;4.00;3.00;;;;;11.04;62.69;98477.28;5016890;28;45347;-62
2023/03/10 05:00:47;;;;;;;;;3.75;1.00;;;;;11.04;62.80;98485.16;5004178;28;45208;-62
2023/03/10 05:03:12;;;;;;;;;4.50;1.00;;;;;11.04;62.54;98485.16;5015576;28;45254;-63
2023/03/10 05:05:38;;;;;;;;;6.75;2.00;;;;;11.00;62.70;98484.47;5016643;28;45415;-63
2023/03/10 05:08:04;;;;;;;;;2.50;1.50;;;;;11.04;62.19;98486.03;5016594;28;45301;-63
2023/03/10 05:10:30;;;;;;;;;2.75;1.75;;;;;11.03;62.58;98486.97;5016382;28;45282;-63
2023/03/10 05:12:55;;;;;;;;;6.00;2.00;;;;;11.00;62.24;98500.25;5016487;28;45204;-63
2023/03/10 05:15:21;;;;;;;;;2.25;0.75;;;;;11.01;61.64;98499.31;5015484;28;45382;-63
2023/03/10 05:17:46;;;;;;;;;2.00;1.50;;;;;10.98;62.45;98490.72;4998748;28;45450;-63
2023/03/10 05:20:13;;;;;;;;;1.75;1.75;;;;;10.98;62.29;98496.84;5015187;28;45532;-63
2023/03/10 05:22:39;;;;;;;;;0.75;0.50;;;;;10.94;62.36;98511.06;5011249;28;45455;-63
2023/03/10 05:25:05;;;;;;;;;2.00;1.50;;;;;10.96;62.29;98508.38;5012617;28;45299;-62
2023/03/10 05:27:34;;;;;;;;;2.00;2.00;;;;;10.99;62.43;98518.72;5019598;28;45184;-63
2023/03/10 05:30:01;;;;;;;;;2.00;2.00;;;;;10.93;62.31;98533.03;5019471;28;45193;-62
2023/03/10 05:32:26;;;;;;;;;2.00;1.00;;;;;10.96;62.22;98513.63;5019249;28;45468;-62
2023/03/10 05:34:51;;;;;;;;;3.25;2.25;;;;;10.90;62.16;98499.03;5019292;28;45319;-62
2023/03/10 05:37:17;;;;;;;;;1.00;0.00;;;;;10.91;62.24;98527.00;5019624;28;45687;-63
2023/03/10 05:39:42;;;;;;;;;1.75;0.00;;;;;10.92;62.26;98518.19;5018968;28;45284;-62
2023/03/10 05:42:11;;;;;;;;;1.25;1.25;;;;;10.85;62.41;98499.25;5019256;28;45374;-63
2023/03/10 05:44:36;;;;;;;;;2.25;1.75;;;;;10.85;61.96;98509.75;5019401;28;45235;-63
2023/03/10 05:47:02;;;;;;;;;4.75;0.00;;;;;10.78;62.42;98521.53;5019166;28;45362;-63
2023/03/10 05:49:27;;;;;;;;;2.50;2.00;;;;;10.78;62.22;98500.50;5019255;28;45332;-63
2023/03/10 05:51:52;;;;;;;;;2.00;1.00;;;;;10.73;62.49;98498.09;5019033;28;45278;-63
2023/03/10 05:54:18;;;;;;;;;1.00;0.00;;;;;10.71;62.59;98515.72;5018989;28;45347;-62
2023/03/10 05:56:43;;;;;;;;;2.00;1.25;;;;;10.67;62.58;98516.78;5001684;28;45382;-63
2023/03/10 05:59:08;;;;;;;;;1.75;0.75;;;;;10.65;62.55;98512.56;5017940;28;45373;-62
2023/03/10 06:01:34;;;;;;;;;2.00;0.00;;;;;10.61;62.68;98511.84;5000016;28;45393;-62
2023/03/10 06:03:59;;;;;;;;;1.00;1.00;;;;;10.59;62.66;98515.47;5026900;28;45405;-62
2023/03/10 06:06:24;;;;;;;;;1.25;0.75;;;;;10.57;62.78;98512.94;5019053;28;45258;-62
2023/03/10 06:08:50;;;;;;;;;0.00;0.00;;;;;10.53;62.85;98511.41;5017533;28;45619;-63
2023/03/10 06:11:15;;;;;;;;;1.00;0.00;;;;;10.51;62.98;98534.25;5018705;28;46437;-63
2023/03/10 06:13:40;;;;;;;;;1.00;0.50;;;;;10.46;62.99;98521.34;5003820;28;45432;-62
2023/03/10 06:16:06;;;;;;;;;1.00;0.75;;;;;10.45;62.88;98571.31;5026878;28;45405;-63
2023/03/10 06:18:32;;;;;;;;;1.25;0.25;;;;;10.42;63.26;98556.56;4999202;28;45606;-63
2023/03/10 06:20:58;;;;;;;;;2.00;1.00;;;;;10.36;62.84;98547.22;5003478;28;45453;-63
2023/03/10 06:23:24;;;;;;;;;0.25;0.25;;;;;10.37;63.27;98548.03;5014163;28;45335;-63
2023/03/10 06:26:08;;;;;;;;;0.00;0.00;;;;;10.37;63.04;98541.00;5018282;28;45276;-63
2023/03/10 06:28:36;;;;;;;;;1.00;1.00;;;;;10.35;63.12;98529.72;5018567;28;45487;-63
2023/03/10 06:31:04;;;;;;;;;0.00;0.00;;;;;10.34;63.12;98542.91;5018823;28;46216;-64
2023/03/10 06:33:30;;;;;;;;;1.75;0.75;;;;;10.33;63.01;98552.56;5016803;28;45327;-65
2023/03/10 06:35:56;;;;;;;;;1.25;0.00;;;;;10.32;63.47;98561.34;5034097;27;45354;-62
2023/03/10 06:38:22;;;;;;;;;0.00;0.00;;;;;10.27;63.69;98584.34;5017335;28;45454;-62
2023/03/10 06:40:48;;;;;;;;;0.00;0.00;;;;;10.21;63.42;98569.75;5033076;28;47087;-63
2023/03/10 06:43:13;;;;;;;;;0.00;0.00;;;;;10.18;63.35;98569.03;5018097;28;45255;-63
2023/03/10 06:45:45;;;;;;;;;1.00;0.00;;;;;10.17;63.85;98551.59;5018819;28;45360;-64
2023/03/10 06:48:11;;;;;;;;;1.75;0.75;;;;;10.20;64.14;98562.81;5005798;27;45349;-63
2023/03/10 06:50:46;;;;;;;;;2.00;1.00;;;;;10.16;63.99;98570.88;4999314;28;46055;-62
2023/03/10 06:53:12;;;;;;;;;1.00;1.00;;;;;10.13;64.04;98579.75;5001217;28;45610;-65
2023/03/10 06:55:38;;;;;;;;;1.25;0.00;;;;;10.16;64.56;98586.63;5002851;27;45465;-64
2023/03/10 06:58:03;;;;;;;;;0.75;0.75;;;;;10.14;64.36;98589.34;5000702;28;45411;-63
2023/03/10 07:00:28;;;;;;;;;1.50;1.50;;;;;10.13;64.33;98589.41;4999756;28;47647;-63
2023/03/10 07:02:54;;;;;;;;;4.25;3.00;;;;;10.14;64.09;98606.84;4998335;28;45310;-63
2023/03/10 07:05:21;;;;;;;;;3.00;1.00;;;;;10.13;64.39;98607.78;5007450;28;45543;-63
2023/03/10 07:07:49;;;;;;;;;0.75;0.75;;;;;10.14;64.03;98614.72;5005961;28;46340;-63
2023/03/10 07:10:15;;;;;;;;;0.00;0.00;;;;;10.12;64.39;98613.94;4997678;28;45599;-63
2023/03/10 07:12:41;;;;;;;;;0.25;0.00;;;;;10.13;63.61;98615.66;5000174;27;45446;-62
2023/03/10 07:15:07;;;;;;;;;0.00;0.00;;;;;10.11;64.23;98626.19;5001253;28;45437;-62
2023/03/10 07:17:32;;;;;;;;;1.00;0.00;;;;;10.15;64.34;98629.53;5001349;27;45435;-62
2023/03/10 07:19:58;;;;;;;;;0.00;0.00;;;;;10.19;64.20;98633.75;5014312;28;46519;-62
2023/03/10 07:22:23;;;;;;;;;0.50;0.00;;;;;10.17;64.28;98651.34;5011460;28;45313;-63
2023/03/10 07:24:48;;;;;;;;;0.00;0.00;;;;;10.18;64.10;98648.63;5012771;28;45381;-63
2023/03/10 07:27:14;;;;;;;;;0.00;0.00;;;;;10.21;63.95;98672.13;5018152;28;45322;-63
2023/03/10 07:29:39;;;;;;;;;0.00;0.00;;;;;10.22;64.33;98658.06;5016639;28;46931;-63
2023/03/10 07:32:04;;;;;;;;;0.00;0.00;;;;;10.24;64.49;98679.00;5009223;28;45318;-63
2023/03/10 07:34:30;;;;;;;;;0.00;0.00;;;;;10.29;64.36;98687.53;5018184;28;45310;-63
2023/03/10 07:36:55;;;;;;;;;0.00;0.00;;;;;10.28;64.49;98706.81;5016929;28;45304;-63
2023/03/10 07:39:20;;;;;;;;;0.00;0.00;;;;;10.26;64.51;98690.28;5017460;28;45414;-63
2023/03/10 07:41:45;;;;;;;;;1.00;0.00;;;;;10.33;64.81;98711.88;5016699;28;45243;-63
2023/03/10 07:44:11;;;;;;;;;0.00;0.00;;;;;10.31;64.70;98695.31;5017391;28;45220;-62
2023/03/10 07:46:36;;;;;;;;;0.00;0.00;;;;;10.33;64.38;98710.09;5016338;28;45367;-63
2023/03/10 07:49:03;;;;;;;;;0.00;0.00;;;;;10.34;64.92;98719.66;5007229;28;47338;-62
2023/03/10 07:51:30;;;;;;;;;0.75;0.00;;;;;10.32;64.65;98729.38;5010921;28;45315;-62
2023/03/10 07:53:55;;;;;;;;;0.00;0.00;;;;;10.35;64.94;98752.88;5009974;28;45226;-62
2023/03/10 07:56:20;;;;;;;;;0.00;0.00;;;;;10.36;64.48;98759.00;5007696;28;47951;-62
2023/03/10 07:58:46;;;;;;;;;1.75;0.00;;;;;10.40;64.54;98761.44;5016214;28;48620;-62
2023/03/10 08:01:17;;;;;;;;;0.00;0.00;;;;;10.42;64.61;98766.63;5044763;28;45464;-62
2023/03/10 08:03:43;;;;;;;;;0.00;0.00;;;;;10.39;63.35;98778.09;5018138;28;45295;-62
2023/03/10 08:06:14;;;;;;;;;0.00;0.00;;;;;10.44;64.24;98795.41;5016176;28;45742;-62
2023/03/10 08:08:40;;;;;;;;;0.00;0.00;;;;;10.43;63.85;98809.47;5017387;28;45389;-62
2023/03/10 08:11:09;;;;;;;;;0.00;0.00;;;;;10.36;64.30;98799.25;5017203;28;45439;-63
2023/03/10 08:13:35;;;;;;;;;0.00;0.00;;;;;10.42;63.81;98786.78;5017734;28;45270;-62
2023/03/10 08:16:01;;;;;;;;;0.00;0.00;;;;;10.42;63.54;98799.91;5015774;28;45584;-62
2023/03/10 08:18:28;;;;;;;;;0.00;0.00;;;;;10.50;63.58;98829.28;5017465;28;46319;-62
2023/03/10 08:20:54;;;;;;;;;1.00;1.00;;;;;10.49;63.23;98824.94;5017111;28;45381;-63
2023/03/10 08:23:19;;;;;;;;;0.00;0.00;;;;;10.50;63.29;98848.53;5017617;28;45378;-62
2023/03/10 08:25:45;;;;;;;;;1.00;0.00;;;;;10.55;62.98;98840.44;5016812;28;45634;-62
2023/03/10 08:28:10;;;;;;;;;0.75;0.00;;;;;10.56;63.25;98852.66;5017410;28;45285;-62
2023/03/10 08:30:37;;;;;;;;;1.00;0.00;;;;;10.56;63.06;98856.16;5017209;28;45416;-62
2023/03/10 08:33:03;;;;;;;;;1.00;0.00;;;;;10.60;62.71;98885.75;5017543;28;45165;-62
2023/03/10 08:35:28;;;;;;;;;1.75;0.50;;;;;10.59;62.64;98883.19;5017320;28;45161;-62
2023/03/10 08:37:53;;;;;;;;;0.00;0.00;;;;;10.59;62.65;98894.56;5017047;28;48178;-63
2023/03/10 08:40:19;;;;;;;;;0.00;0.00;;;;;10.61;62.79;98907.63;5015642;28;45434;-63
2023/03/10 08:42:45;;;;;;;;;0.00;0.00;;;;;10.61;62.62;98924.22;5017397;28;45161;-63
2023/03/10 08:45:11;;;;;;;;;0.00;0.00;;;;;10.62;62.08;98933.81;5016850;28;45382;-63
2023/03/10 08:47:37;;;;;;;;;2.00;0.25;;;;;10.59;62.08;98923.47;5017044;28;46258;-63
2023/03/10 08:50:05;;;;;;;;;2.00;0.00;;;;;10.62;62.50;98943.47;5005274;28;45356;-63
2023/03/10 08:52:31;;;;;;;;;0.00;0.00;;;;;10.57;62.24;98935.78;5007269;28;45297;-62
2023/03/10 08:54:56;;;;;;;;;0.00;0.00;;;;;10.57;62.63;98941.03;5016346;28;45565;-63
2023/03/10 08:57:21;;;;;;;;;0.00;0.00;;;;;10.61;62.35;98952.28;5019366;28;46108;-63
2023/03/10 08:59:47;;;;;;;;;0.25;0.00;;;;;10.61;61.98;98953.13;5032274;28;45416;-62
2023/03/10 09:02:14;;;;;;;;;0.00;0.00;;;;;10.59;62.01;98949.72;5000425;28;45274;-63
2023/03/10 09:04:40;;;;;;;;;1.00;0.00;;;;;10.61;62.27;98960.16;5016280;28;45243;-63
2023/03/10 09:07:06;;;;;;;;;1.75;0.00;;;;;10.60;61.88;98972.41;5019600;28;46285;-63
2023/03/10 09:09:31;;;;;;;;;0.00;0.00;;;;;10.56;61.82;98983.97;5019189;28;45330;-62
2023/03/10 09:11:56;;;;;;;;;0.25;0.25;;;;;10.61;61.51;98996.94;5019732;28;46674;-62
2023/03/10 09:14:21;;;;;;;;;0.00;0.00;;;;;10.58;61.71;98992.66;5019328;28;49816;-63
2023/03/10 09:16:47;;;;;;;;;0.00;0.00;;;;;10.57;61.80;98983.06;5019889;28;45431;-63
2023/03/10 09:19:12;;;;;;;;;2.50;1.00;;;;;10.59;61.69;98983.88;5019515;28;45374;-63
2023/03/10 09:21:38;;;;;;;;;0.00;0.00;;;;;10.58;61.23;99050.44;5019992;28;45319;-63
2023/03/10 09:24:03;;;;;;;;;0.00;0.00;;;;;10.58;61.51;99037.31;5017564;28;45344;-63
2023/03/10 09:26:29;;;;;;;;;0.00;0.00;;;;;10.57;61.54;99048.72;5019666;28;45393;-63
2023/03/10 09:28:54;;;;;;;;;1.50;0.00;;;;;10.55;61.47;99068.94;5018039;28;45338;-63
2023/03/10 09:31:24;;;;;;;;;1.00;1.00;;;;;10.51;61.56;99072.63;5019794;28;45308;-62
2023/03/10 09:33:49;;;;;;;;;0.00;0.00;;;;;10.49;61.35;99072.69;5018269;28;45293;-63
2023/03/10 09:36:15;;;;;;;;;1.25;1.00;;;;;10.48;61.43;99085.91;5019333;28;46048;-63
2023/03/10 09:38:41;;;;;;;;;1.25;1.00;;;;;10.45;61.10;99099.97;5019037;28;45248;-63
2023/03/10 09:41:12;;;;;;;;;3.00;0.00;;;;;10.44;60.49;99105.28;5001656;28;45358;-63
2023/03/10 09:43:44;;;;;;;;;1.00;0.00;;;;;10.46;60.77;99127.94;5017941;28;46198;-63
2023/03/10 09:46:22;;;;;;;;;0.00;0.00;;;;;10.47;60.57;99118.31;5019305;28;46137;-63
2023/03/10 09:49:14;;;;;;;;;0.00;0.00;;;;;10.43;60.79;99146.47;5016293;28;45453;-63
2023/03/10 09:51:46;;;;;;;;;1.00;1.00;;;;;10.44;60.72;99142.06;5002472;28;45359;-63
2023/03/10 09:54:39;;;;;;;;;2.00;0.00;;;;;10.44;60.47;99148.19;5018992;28;45345;-63
2023/03/10 09:57:16;;;;;;;;;0.00;0.00;;;;;10.42;60.35;99168.38;5019227;28;45447;-63
2023/03/10 09:59:46;;;;;;;;;2.00;0.00;;;;;10.44;60.55;99176.19;5016914;28;45436;-63
2023/03/10 10:02:35;;;;;;;;;1.00;0.00;;;;;10.43;60.19;99177.09;4999444;28;45206;-63
2023/03/10 10:05:05;;;;;;;;;0.00;0.00;;;;;10.43;60.16;99184.97;5018529;28;45311;-63
2023/03/10 10:07:45;;;;;;;;;1.25;1.25;;;;;10.43;60.09;99184.97;5018208;28;46529;-63
2023/03/10 10:10:10;;;;;;;;;1.00;1.00;;;;;10.42;59.98;99222.69;5018751;28;45271;-63
2023/03/10 10:12:36;;;;;;;;;1.75;0.75;;;;;10.39;59.90;99200.88;5018977;28;45320;-63
2023/03/10 10:15:14;;;;;;;;;2.00;1.00;;;;;10.42;59.56;99233.19;5019062;28;45302;-63
2023/03/10 10:18:06;;;;;;;;;1.75;1.75;;;;;10.39;59.54;99256.03;5018807;28;46083;-63
2023/03/10 10:20:37;;;;;;;;;2.00;1.00;;;;;10.38;59.42;99240.31;5015896;28;45428;-63
2023/03/10 10:23:24;;;;;;;;;2.00;1.00;;;;;10.34;59.31;99230.78;5051117;28;45352;-63
2023/03/10 10:25:49;;;;;;;;;2.50;2.00;;;;;10.31;59.48;99251.94;5018390;28;45330;-63
2023/03/10 10:28:31;;;;;;;;;0.25;0.25;;;;;10.30;59.36;99264.22;5018732;28;46290;-63
2023/03/10 10:31:19;;;;;;;;;2.00;2.00;;;;;10.34;59.09;99306.94;5018772;28;45302;-63
2023/03/10 10:34:18;;;;;;;;;4.00;3.00;;;;;10.32;58.69;99290.41;5018670;28;45463;-63
2023/03/10 10:36:50;;;;;;;;;0.75;0.75;;;;;10.29;58.44;99312.38;5050743;28;45344;-66
2023/03/10 10:39:23;;;;;;;;;2.50;1.00;;;;;10.27;58.22;99287.94;5018229;28;47192;-67
2023/03/10 10:41:48;;;;;;;;;2.00;1.00;;;;;10.21;57.75;99309.16;5018455;28;45172;-64
2023/03/10 10:44:16;;;;;;;;;1.50;1.00;;;;;10.17;57.77;99312.81;5018857;28;45294;-64
2023/03/10 10:46:56;;;;;;;;;3.00;1.00;;;;;10.16;57.35;99324.22;5018463;28;45524;-65
2023/03/10 10:49:30;;;;;;;;;3.50;1.50;;;;;10.16;56.71;99330.34;5012620;28;45308;-64
2023/03/10 10:51:59;;;;;;;;;2.50;1.00;;;;;10.15;56.97;99317.25;5035493;28;45382;-66
2023/03/10 10:54:30;;;;;;;;;1.75;0.50;;;;;10.14;56.08;99350.53;5033593;28;45327;-65
2023/03/10 10:56:58;;;;;;;;;3.00;1.75;;;;;10.14;56.63;99347.91;5018453;28;45414;-65
2023/03/10 10:59:32;;;;;;;;;3.25;1.00;;;;;10.16;56.50;99356.59;5018122;28;46434;-65
2023/03/10 11:02:00;;;;;;;;;6.25;2.75;;;;;10.15;56.63;99349.63;4994253;28;45265;-66
2023/03/10 11:04:28;;;;;;;;;1.75;1.25;;;;;10.15;56.61;99351.38;5018267;28;45364;-65
2023/03/10 11:07:14;;;;;;;;;2.75;1.50;;;;;10.17;56.02;99371.41;5017183;28;45476;-65
2023/03/10 11:09:40;;;;;;;;;2.75;1.25;;;;;10.20;55.76;99386.19;5017733;28;45946;-64
2023/03/10 11:12:24;;;;;;;;;2.00;0.25;;;;;10.22;55.52;99401.00;5018482;28;45347;-64
2023/03/10 11:15:15;;;;;;;;;1.25;1.00;;;;;10.19;55.34;99408.97;5018572;28;45368;-64
2023/03/10 11:18:09;;;;;;;;;1.25;1.25;;;;;10.15;55.55;99396.88;5017037;28;45511;-64
2023/03/10 11:20:53;;;;;;;;;5.25;2.25;;;;;10.13;55.65;99398.69;5016504;28;45251;-64
2023/03/10 11:23:40;;;;;;;;;3.50;1.00;;;;;10.12;55.30;99433.72;5018383;28;45508;-64
2023/03/10 11:26:34;;;;;;;;;3.75;2.00;;;;;10.12;53.80;99409.25;5017975;28;45472;-64
2023/03/10 11:29:22;;;;;;;;;0.25;0.00;;;;;10.06;54.53;99405.03;5017914;28;45723;-64
2023/03/10 11:32:12;;;;;;;;;3.50;2.00;;;;;10.08;54.87;99401.47;5017744;28;45378;-64
2023/03/10 11:34:44;;;;;;;;;1.75;1.75;;;;;10.09;54.81;99418.94;5018092;28;45234;-66
2023/03/10 11:37:23;;;;;;;;;1.00;1.00;;;;;10.05;54.43;99448.81;5015682;28;45393;-65
2023/03/10 11:40:14;;;;;;;;;3.75;1.75;;;;;10.15;54.81;99444.13;5009466;28;45289;-64